Time;durP1;ratioP1;P1;durP2;ratioP2;P2;SDS_P1;SDS_P2;PMS_P1;PMS_P2;Temp;Humidity;BMP_temperature;BMP_pressure;BME280_temperature;BME280_humidity;BME280_pressure;Samples;Min_cycle;Max_cycle;Signal;HPM_P1;HPM_P2
2022/03/14 05:02:09;;;;;;;6.50;4.00;;;8.80;99.90;;;;;;5185648;23;21015;-75
2022/03/14 05:04:38;;;;;;;6.53;5.00;;;8.60;99.90;;;;;;4979210;28;20460;-75
2022/03/14 05:07:07;;;;;;;5.03;4.17;;;8.40;99.90;;;;;;4981588;28;20518;-75
2022/03/14 05:09:34;;;;;;;6.00;3.90;;;8.40;99.90;;;;;;4985757;28;20472;-75
2022/03/14 05:12:01;;;;;;;4.97;4.47;;;8.40;99.90;;;;;;4969942;28;20822;-76
2022/03/14 05:14:28;;;;;;;4.60;4.10;;;8.30;99.90;;;;;;4965535;28;20483;-76
2022/03/14 05:16:55;;;;;;;4.07;3.63;;;8.40;99.90;;;;;;4956223;29;20457;-75
2022/03/14 05:19:23;;;;;;;4.87;3.83;;;8.40;99.90;;;;;;4955719;28;20469;-75
2022/03/14 05:21:50;;;;;;;3.67;3.37;;;8.50;99.90;;;;;;4955942;28;20997;-75
2022/03/14 05:24:17;;;;;;;6.57;4.23;;;8.50;99.90;;;;;;4956429;29;20541;-75
2022/03/14 05:26:46;;;;;;;3.30;3.00;;;8.60;99.90;;;;;;4956052;28;20485;-75
2022/03/14 05:29:14;;;;;;;5.63;3.70;;;8.60;99.90;;;;;;4956292;29;20472;-75
2022/03/14 05:31:41;;;;;;;4.23;3.83;;;8.60;99.90;;;;;;4955826;28;20477;-75
2022/03/14 05:34:08;;;;;;;4.03;3.73;;;8.70;99.90;;;;;;4956265;29;20463;-75
2022/03/14 05:36:37;;;;;;;4.53;4.03;;;8.70;99.90;;;;;;4955649;29;20461;-75
2022/03/14 05:39:04;;;;;;;4.60;3.73;;;8.60;99.90;;;;;;4955915;28;20460;-75
2022/03/14 05:41:31;;;;;;;3.57;3.27;;;8.70;99.90;;;;;;4955813;28;20828;-75
2022/03/14 05:43:58;;;;;;;4.13;3.40;;;8.70;99.90;;;;;;4955667;28;21053;-75
2022/03/14 05:46:25;;;;;;;3.60;3.30;;;8.70;99.90;;;;;;4955496;28;20532;-75
2022/03/14 05:48:52;;;;;;;4.37;3.97;;;8.70;99.90;;;;;;4955974;29;20961;-75
2022/03/14 05:51:19;;;;;;;4.17;3.77;;;8.70;99.90;;;;;;4955816;28;20473;-75
2022/03/14 05:53:47;;;;;;;5.00;3.80;;;8.80;99.90;;;;;;4955764;29;20460;-75
2022/03/14 05:56:14;;;;;;;4.73;4.00;;;8.80;99.90;;;;;;4955641;28;20454;-75
2022/03/14 05:58:41;;;;;;;4.73;4.20;;;8.80;99.90;;;;;;4955435;29;20982;-76
2022/03/14 06:01:08;;;;;;;6.93;4.50;;;8.80;99.90;;;;;;4955295;28;20519;-76
2022/03/14 06:03:34;;;;;;;4.80;4.30;;;8.90;99.90;;;;;;4955564;29;20572;-76
2022/03/14 06:06:02;;;;;;;6.03;5.17;;;8.90;99.90;;;;;;4955258;29;20492;-74
2022/03/14 06:08:29;;;;;;;6.80;4.33;;;8.90;99.90;;;;;;4954899;29;20461;-76
2022/03/14 06:10:57;;;;;;;7.57;5.17;;;8.90;99.90;;;;;;4954930;28;20582;-76
2022/03/14 06:13:25;;;;;;;5.70;5.00;;;8.90;99.90;;;;;;4957828;28;20945;-76
2022/03/14 06:15:51;;;;;;;6.77;4.93;;;8.90;99.90;;;;;;4967527;28;20871;-76
2022/03/14 06:18:19;;;;;;;5.30;4.50;;;8.90;99.90;;;;;;4955527;29;20441;-75
2022/03/14 06:20:49;;;;;;;5.37;4.87;;;8.90;99.90;;;;;;4955268;28;20898;-77
2022/03/14 06:23:17;;;;;;;5.53;4.87;;;8.90;99.90;;;;;;4955055;29;20489;-76
2022/03/14 06:25:44;;;;;;;5.83;5.23;;;8.90;99.90;;;;;;4954592;29;20516;-76
2022/03/14 06:28:12;;;;;;;6.00;5.40;;;8.90;99.90;;;;;;4954530;29;20457;-76
2022/03/14 06:30:39;;;;;;;6.10;5.50;;;8.90;99.90;;;;;;4955111;28;20473;-76
2022/03/14 06:33:06;;;;;;;7.10;5.67;;;9.00;99.90;;;;;;4955130;29;20459;-76
2022/03/14 06:35:35;;;;;;;7.88;5.80;;;9.00;99.90;;;;;;4953845;29;20680;-77
2022/03/14 06:38:02;;;;;;;6.83;5.80;;;9.20;99.90;;;;;;4954796;28;20222;-77
2022/03/14 06:40:29;;;;;;;8.83;6.17;;;9.30;99.90;;;;;;4954179;28;20462;-76
2022/03/14 06:42:57;;;;;;;6.90;5.83;;;9.30;99.90;;;;;;4954223;29;20497;-77
2022/03/14 06:45:26;;;;;;;6.10;5.23;;;9.20;99.90;;;;;;4954870;28;20457;-77
2022/03/14 06:47:54;;;;;;;7.77;6.40;;;9.20;99.90;;;;;;4954237;28;20464;-76
2022/03/14 06:50:21;;;;;;;7.87;6.23;;;9.20;99.90;;;;;;4954388;28;20974;-76
2022/03/14 06:52:48;;;;;;;10.13;6.80;;;9.10;99.90;;;;;;4954324;28;20460;-77
2022/03/14 06:55:15;;;;;;;7.70;6.33;;;9.20;99.90;;;;;;4953784;28;20818;-77
2022/03/14 06:57:42;;;;;;;7.50;6.00;;;9.10;99.90;;;;;;4954239;28;20473;-76
2022/03/14 07:00:10;;;;;;;7.23;5.80;;;9.10;99.90;;;;;;4954362;28;20544;-76
2022/03/14 07:02:40;;;;;;;7.37;6.13;;;9.10;99.90;;;;;;4954286;28;20580;-76
2022/03/14 07:05:13;;;;;;;6.93;5.77;;;9.10;99.90;;;;;;4954331;28;20457;-77
2022/03/14 07:07:40;;;;;;;8.80;6.60;;;9.10;99.90;;;;;;4953907;28;20602;-77
2022/03/14 07:10:08;;;;;;;7.70;6.90;;;9.00;99.90;;;;;;4954493;28;20481;-76
2022/03/14 07:12:39;;;;;;;9.03;6.67;;;9.00;99.90;;;;;;4954493;28;20532;-77
2022/03/14 07:15:06;;;;;;;6.40;5.80;;;9.00;99.90;;;;;;4954368;28;20455;-76
2022/03/14 07:17:33;;;;;;;6.80;6.13;;;8.90;99.90;;;;;;4954346;28;20520;-77
2022/03/14 07:20:01;;;;;;;6.93;6.07;;;8.90;99.90;;;;;;4953999;28;20485;-69
2022/03/14 07:22:30;;;;;;;10.00;6.17;;;8.90;99.90;;;;;;4954123;28;20497;-70
2022/03/14 07:24:57;;;;;;;8.00;4.90;;;8.80;99.90;;;;;;4954299;28;20464;-69
2022/03/14 07:27:24;;;;;;;6.47;5.73;;;8.80;99.90;;;;;;4953921;28;20528;-69
2022/03/14 07:29:51;;;;;;;7.70;4.80;;;8.80;99.90;;;;;;4954113;28;20500;-69
2022/03/14 07:32:18;;;;;;;6.00;5.40;;;8.80;99.90;;;;;;4953990;28;20497;-76
2022/03/14 07:34:44;;;;;;;8.40;5.30;;;8.70;99.90;;;;;;4953796;28;20544;-76
2022/03/14 07:37:13;;;;;;;5.20;4.50;;;8.80;99.90;;;;;;4954012;28;20472;-76
2022/03/14 07:39:40;;;;;;;6.10;4.60;;;8.70;99.90;;;;;;4954059;28;20485;-76
2022/03/14 07:42:07;;;;;;;9.17;5.00;;;8.80;99.90;;;;;;4953866;28;20519;-76
2022/03/14 07:44:34;;;;;;;8.00;3.80;;;8.90;99.90;;;;;;4953826;28;20512;-76
2022/03/14 07:47:03;;;;;;;6.27;3.77;;;8.90;99.90;;;;;;4953436;28;20457;-77
2022/03/14 07:49:30;;;;;;;6.10;3.67;;;8.90;99.90;;;;;;4953872;28;20827;-76
2022/03/14 07:51:57;;;;;;;5.70;3.53;;;8.80;99.90;;;;;;4953361;28;21059;-76
2022/03/14 07:54:25;;;;;;;7.40;3.37;;;8.90;99.90;;;;;;4953807;28;20540;-76
2022/03/14 07:56:52;;;;;;;8.23;3.17;;;8.90;99.90;;;;;;4953600;28;20501;-76
2022/03/14 07:59:19;;;;;;;4.33;3.03;;;9.00;99.90;;;;;;4953615;28;20462;-76
2022/03/14 08:01:46;;;;;;;7.13;2.63;;;9.10;99.90;;;;;;4953374;28;20488;-77
2022/03/14 08:04:13;;;;;;;7.40;3.07;;;9.20;99.90;;;;;;4953845;28;20504;-76
2022/03/14 08:06:42;;;;;;;4.90;2.40;;;9.20;99.90;;;;;;4957201;28;20891;-77
2022/03/14 08:09:09;;;;;;;7.90;2.73;;;9.30;99.90;;;;;;4957576;28;20457;-77
2022/03/14 08:11:38;;;;;;;7.07;2.33;;;9.30;99.90;;;;;;4957505;28;20485;-77
2022/03/14 08:14:05;;;;;;;10.13;3.03;;;9.40;99.90;;;;;;4957148;28;20468;-77
2022/03/14 08:16:32;;;;;;;11.77;3.40;;;9.50;99.90;;;;;;4956737;29;20858;-76
2022/03/14 08:18:59;;;;;;;6.03;2.07;;;9.50;99.90;;;;;;4956885;28;20475;-76
2022/03/14 08:21:26;;;;;;;10.10;2.60;;;9.60;99.90;;;;;;4956880;28;20556;-76
2022/03/14 08:23:53;;;;;;;5.80;2.00;;;9.60;99.90;;;;;;4957774;29;21053;-76
2022/03/14 08:26:21;;;;;;;8.70;2.33;;;9.60;99.90;;;;;;4956837;28;20476;-78
2022/03/14 08:28:50;;;;;;;5.77;2.20;;;9.50;99.90;;;;;;4956423;28;20465;-76
2022/03/14 08:31:21;;;;;;;4.70;2.20;;;9.60;99.90;;;;;;4955725;28;20469;-77
2022/03/14 08:33:48;;;;;;;7.70;2.37;;;9.50;99.90;;;;;;4953394;29;20461;-77
2022/03/14 08:36:20;;;;;;;8.10;2.60;;;9.60;99.90;;;;;;4955733;28;20573;-79
2022/03/14 08:38:47;;;;;;;3.43;2.10;;;9.60;99.90;;;;;;4956133;28;20548;-78
2022/03/14 08:41:16;;;;;;;3.60;1.90;;;9.70;99.90;;;;;;4955803;28;20572;-77
2022/03/14 08:43:43;;;;;;;2.60;1.73;;;9.70;99.90;;;;;;4956003;29;20505;-77
2022/03/14 08:46:12;;;;;;;9.33;2.10;;;9.70;99.90;;;;;;4955981;29;20960;-77
2022/03/14 08:48:39;;;;;;;6.83;2.07;;;9.70;99.90;;;;;;4955882;28;21002;-78
2022/03/14 08:51:06;;;;;;;3.70;2.00;;;9.70;99.90;;;;;;4955997;28;20465;-76
2022/03/14 08:53:33;;;;;;;7.47;2.47;;;9.70;99.90;;;;;;4955508;28;20485;-76
2022/03/14 08:56:02;;;;;;;6.97;2.00;;;9.70;99.90;;;;;;4955594;28;20457;-76
2022/03/14 08:58:29;;;;;;;5.20;2.07;;;9.80;99.90;;;;;;4955716;29;20537;-76
2022/03/14 09:00:57;;;;;;;5.57;2.57;;;9.80;99.90;;;;;;4955641;28;20485;-77
2022/03/14 09:03:25;;;;;;;4.93;2.73;;;9.90;99.90;;;;;;4955685;28;20504;-77
2022/03/14 09:05:52;;;;;;;6.13;2.20;;;9.90;99.90;;;;;;4955700;29;20453;-76
2022/03/14 09:08:19;;;;;;;10.30;2.77;;;9.90;99.90;;;;;;4955212;28;20582;-76
2022/03/14 09:10:46;;;;;;;3.47;1.87;;;9.80;99.90;;;;;;4955473;28;20473;-76
2022/03/14 09:13:13;;;;;;;5.13;2.03;;;9.70;99.90;;;;;;4955484;28;20461;-76
2022/03/14 09:15:40;;;;;;;3.00;1.77;;;9.70;99.90;;;;;;4955523;28;20837;-76
2022/03/14 09:18:07;;;;;;;7.00;1.90;;;9.80;99.90;;;;;;4954675;28;20484;-77
2022/03/14 09:20:38;;;;;;;5.53;2.10;;;9.90;99.90;;;;;;4955367;28;20568;-76
2022/03/14 09:23:06;;;;;;;6.00;1.87;;;10.00;99.90;;;;;;4955083;28;20831;-76
2022/03/14 09:25:33;;;;;;;7.90;2.00;;;10.10;99.90;;;;;;4955187;28;20496;-77
2022/03/14 09:28:00;;;;;;;7.03;2.00;;;10.20;99.90;;;;;;4955212;28;20481;-76
2022/03/14 09:30:27;;;;;;;8.97;1.93;;;10.40;99.90;;;;;;4955176;28;20533;-77
2022/03/14 09:32:55;;;;;;;2.67;2.20;;;10.60;99.90;;;;;;4955226;28;20541;-77
2022/03/14 09:35:23;;;;;;;10.50;2.23;;;10.70;99.90;;;;;;4954997;28;20467;-77
2022/03/14 09:37:52;;;;;;;8.53;2.20;;;10.70;99.90;;;;;;4955026;29;20568;-76
2022/03/14 09:40:21;;;;;;;4.77;1.93;;;10.70;99.90;;;;;;4955180;28;20473;-76
2022/03/14 09:42:49;;;;;;;7.90;1.87;;;10.70;99.90;;;;;;4955022;28;20457;-76
2022/03/14 09:45:16;;;;;;;6.47;2.00;;;10.60;99.90;;;;;;4955034;28;20449;-76
2022/03/14 09:47:47;;;;;;;3.80;1.90;;;10.70;99.90;;;;;;4954775;29;20503;-77
2022/03/14 09:50:16;;;;;;;5.13;1.70;;;11.00;99.90;;;;;;4954822;28;20983;-76
2022/03/14 09:52:45;;;;;;;6.57;1.77;;;11.20;99.90;;;;;;4954889;29;20549;-76
2022/03/14 09:55:14;;;;;;;8.00;2.97;;;11.40;99.90;;;;;;4954860;29;20454;-77
2022/03/14 09:57:41;;;;;;;3.47;1.70;;;11.50;99.90;;;;;;4954633;28;20516;-76
2022/03/14 10:00:13;;;;;;;4.73;1.93;;;11.70;99.90;;;;;;4954727;29;20492;-76
2022/03/14 10:02:43;;;;;;;7.30;1.43;;;11.80;99.90;;;;;;4954578;28;20505;-76
2022/03/14 10:05:11;;;;;;;9.90;2.00;;;12.00;99.90;;;;;;4954452;29;21017;-76
2022/03/14 10:07:40;;;;;;;4.80;1.70;;;12.20;99.90;;;;;;4954267;29;20462;-78
2022/03/14 10:10:08;;;;;;;8.47;2.60;;;12.40;99.90;;;;;;4954550;29;20464;-78
2022/03/14 10:12:36;;;;;;;5.63;1.40;;;12.60;99.90;;;;;;4954183;28;20473;-76
2022/03/14 10:15:05;;;;;;;5.40;1.80;;;12.70;99.90;;;;;;4955153;28;20449;-76
2022/03/14 10:17:35;;;;;;;2.07;1.30;;;12.70;99.90;;;;;;4955053;28;20489;-77
2022/03/14 10:20:06;;;;;;;3.77;1.70;;;12.90;99.90;;;;;;4955452;29;20446;-76
2022/03/14 10:22:35;;;;;;;6.27;1.73;;;12.90;99.90;;;;;;4955227;28;20477;-76
2022/03/14 10:25:05;;;;;;;5.37;1.50;;;13.00;99.90;;;;;;4954967;28;20504;-76
2022/03/14 10:27:37;;;;;;;5.20;1.60;;;13.10;99.90;;;;;;4954772;28;20529;-76
2022/03/14 10:30:06;;;;;;;2.30;1.40;;;13.10;99.90;;;;;;4954346;28;20516;-76
2022/03/14 10:32:37;;;;;;;3.20;1.77;;;13.80;99.90;;;;;;4955049;28;20553;-77
2022/03/14 10:35:06;;;;;;;5.57;1.80;;;13.70;99.90;;;;;;4955098;28;20838;-76
2022/03/14 10:37:37;;;;;;;4.83;1.67;;;13.60;99.90;;;;;;4954670;29;20885;-76
2022/03/14 10:40:06;;;;;;;4.33;1.60;;;13.60;99.90;;;;;;4954862;28;20929;-77
2022/03/14 10:42:44;;;;;;;6.60;2.20;;;13.60;99.90;;;;;;4954969;28;20481;-77
2022/03/14 10:45:12;;;;;;;6.57;1.70;;;13.80;99.90;;;;;;4954721;28;20485;-76
2022/03/14 10:47:45;;;;;;;6.60;1.90;;;13.50;99.90;;;;;;4954631;29;20461;-76
2022/03/14 10:50:32;;;;;;;5.77;1.37;;;13.70;99.90;;;;;;4954625;28;20831;-76
2022/03/14 10:53:06;;;;;;;4.53;2.17;;;14.00;99.90;;;;;;4954935;29;20536;-77
2022/03/14 10:55:38;;;;;;;2.10;1.40;;;14.00;99.90;;;;;;4954732;28;20937;-75
2022/03/14 10:58:10;;;;;;;4.40;1.67;;;13.80;99.90;;;;;;4954275;28;20536;-75
2022/03/14 11:00:48;;;;;;;2.73;1.50;;;14.00;99.90;;;;;;4954362;28;20488;-75
2022/03/14 11:03:22;;;;;;;4.70;1.93;;;14.10;99.90;;;;;;4954626;29;20445;-76
2022/03/14 11:05:50;;;;;;;6.03;1.83;;;14.30;99.90;;;;;;4954451;29;20796;-76
2022/03/14 11:08:27;;;;;;;4.43;1.50;;;14.60;99.90;;;;;;4954301;28;20458;-76
2022/03/14 11:10:55;;;;;;;2.53;1.33;;;14.70;99.90;;;;;;4954419;28;20473;-76
2022/03/14 11:13:23;;;;;;;2.83;1.30;;;14.80;99.90;;;;;;4954191;29;20514;-76
2022/03/14 11:15:50;;;;;;;5.93;1.67;;;15.00;99.90;;;;;;4978807;23;20497;-73
2022/03/14 11:18:19;;;;;;;5.80;1.60;;;15.30;99.90;;;;;;4953996;28;20453;-74
2022/03/14 11:20:47;;;;;;;4.63;1.80;;;15.10;99.90;;;;;;4953785;28;20457;-74
2022/03/14 11:23:14;;;;;;;4.83;1.80;;;14.90;99.90;;;;;;4954263;28;20457;-74
2022/03/14 11:25:44;;;;;;;7.53;1.70;;;14.90;99.90;;;;;;4938124;28;20549;-74
2022/03/14 11:28:15;;;;;;;5.33;1.50;;;14.90;99.90;;;;;;4934691;29;20509;-74
2022/03/14 11:30:46;;;;;;;6.50;1.73;;;15.10;99.90;;;;;;4934899;29;20805;-68
2022/03/14 11:33:14;;;;;;;6.43;2.07;;;15.10;99.90;;;;;;4934935;29;20458;-68
2022/03/14 11:35:42;;;;;;;5.80;2.07;;;14.90;99.90;;;;;;4934736;29;20545;-68
2022/03/14 11:38:09;;;;;;;4.37;1.90;;;14.80;99.90;;;;;;4934593;29;20466;-68
2022/03/14 11:40:38;;;;;;;6.07;1.80;;;14.60;99.90;;;;;;4933953;29;20946;-68
2022/03/14 11:43:05;;;;;;;5.30;2.40;;;14.30;99.90;;;;;;4934715;29;20534;-68
2022/03/14 11:45:34;;;;;;;9.13;1.90;;;14.20;99.90;;;;;;4934551;29;20541;-68
2022/03/14 11:48:05;;;;;;;7.37;2.10;;;14.20;99.90;;;;;;4934391;29;20466;-68
2022/03/14 11:50:44;;;;;;;6.00;2.53;;;14.10;99.90;;;;;;4934573;29;20451;-68
2022/03/14 11:53:19;;;;;;;5.87;2.10;;;14.20;99.90;;;;;;4934567;29;20446;-68
2022/03/14 11:55:57;;;;;;;7.27;1.83;;;14.50;99.90;;;;;;4934502;29;20561;-68
2022/03/14 11:58:33;;;;;;;4.93;1.50;;;14.80;99.90;;;;;;4939310;29;20470;-67
2022/03/14 12:01:12;;;;;;;4.93;1.50;;;14.70;99.90;;;;;;4953574;28;20544;-68
2022/03/14 12:03:44;;;;;;;4.23;1.70;;;14.60;99.90;;;;;;4953133;29;20463;-68
2022/03/14 12:06:11;;;;;;;5.93;2.03;;;14.70;99.90;;;;;;4953688;29;20878;-68
2022/03/14 12:08:54;;;;;;;3.53;1.80;;;14.80;99.90;;;;;;4953410;29;20470;-68
2022/03/14 12:11:41;;;;;;;4.73;1.57;;;15.10;99.90;;;;;;4951445;28;20845;-68
2022/03/14 12:14:13;;;;;;;8.17;2.03;;;15.30;99.90;;;;;;4952345;28;20491;-68
2022/03/14 12:16:43;;;;;;;3.20;1.20;;;15.60;99.90;;;;;;4953298;28;20462;-68
2022/03/14 12:19:32;;;;;;;4.43;1.70;;;15.80;99.90;;;;;;4953354;29;20489;-68
2022/03/14 12:22:01;;;;;;;4.00;1.77;;;16.50;99.90;;;;;;4950219;28;20451;-68
2022/03/14 12:24:52;;;;;;;6.33;1.33;;;16.40;99.90;;;;;;4934867;29;20511;-69
2022/03/14 12:27:22;;;;;;;4.33;1.40;;;16.40;99.90;;;;;;4933235;28;20553;-69
2022/03/14 12:29:50;;;;;;;2.80;1.67;;;16.60;99.90;;;;;;4934356;29;20485;-68
2022/03/14 12:32:32;;;;;;;2.77;1.43;;;17.00;99.90;;;;;;4934211;29;20969;-69
2022/03/14 12:35:04;;;;;;;4.90;1.87;;;17.70;99.90;;;;;;4934340;29;20477;-68
2022/03/14 12:37:42;;;;;;;4.53;1.30;;;17.80;99.90;;;;;;4933966;29;20959;-68
2022/03/14 12:40:14;;;;;;;3.30;1.77;;;17.20;99.90;;;;;;4933978;29;20974;-69
2022/03/14 12:42:43;;;;;;;4.17;1.50;;;16.60;99.90;;;;;;4934048;29;20485;-70
2022/03/14 12:45:24;;;;;;;4.40;1.57;;;16.30;99.90;;;;;;4933801;29;20940;-68
2022/03/14 12:47:58;;;;;;;2.37;1.30;;;16.30;99.90;;;;;;4933995;29;20464;-69
2022/03/14 12:51:02;;;;;;;4.30;1.57;;;16.40;99.90;;;;;;4934313;29;20454;-69
2022/03/14 12:53:52;;;;;;;2.40;1.30;;;16.40;99.90;;;;;;4936830;29;20453;-68
2022/03/14 12:56:25;;;;;;;3.30;1.57;;;16.50;99.90;;;;;;4937408;29;20468;-68
2022/03/14 12:59:04;;;;;;;4.13;1.70;;;16.60;99.90;;;;;;4937606;29;20454;-68
2022/03/14 13:01:32;;;;;;;1.90;1.10;;;16.70;99.90;;;;;;4937355;29;20449;-75
2022/03/14 13:04:01;;;;;;;4.90;1.50;;;16.70;99.90;;;;;;4936544;29;20458;-75
2022/03/14 13:06:31;;;;;;;2.70;1.80;;;16.90;99.90;;;;;;4936662;29;20472;-75
2022/03/14 13:08:59;;;;;;;3.90;1.60;;;17.10;99.90;;;;;;4942471;29;20460;-75
2022/03/14 13:11:40;;;;;;;5.13;1.43;;;17.10;99.90;;;;;;4956065;29;20824;-75
2022/03/14 13:14:10;;;;;;;1.97;1.20;;;17.00;99.90;;;;;;4954348;28;20480;-75
2022/03/14 13:16:41;;;;;;;5.10;1.43;;;17.20;99.90;;;;;;4946573;29;20563;-75
2022/03/14 13:19:16;;;;;;;4.90;1.30;;;17.30;99.90;;;;;;4917772;29;20554;-75
2022/03/14 13:21:44;;;;;;;3.20;1.50;;;17.20;99.90;;;;;;4917569;29;20261;-75
2022/03/14 13:24:11;;;;;;;8.00;1.40;;;17.20;99.90;;;;;;4924302;29;20475;-75
2022/03/14 13:26:40;;;;;;;3.83;1.20;;;17.00;99.90;;;;;;4936510;29;20497;-75
2022/03/14 13:29:07;;;;;;;2.40;1.20;;;16.60;99.90;;;;;;4937193;29;20460;-75
2022/03/14 13:31:36;;;;;;;1.93;1.20;;;16.70;99.90;;;;;;4938043;29;20454;-75
2022/03/14 13:34:05;;;;;;;1.90;1.20;;;16.70;99.90;;;;;;4938458;29;20529;-75
2022/03/14 13:36:38;;;;;;;2.70;1.33;;;16.70;99.90;;;;;;4937733;29;20538;-75
2022/03/14 13:39:07;;;;;;;2.37;1.30;;;17.00;99.90;;;;;;4938007;29;20529;-75
2022/03/14 13:41:35;;;;;;;3.33;1.23;;;17.40;99.90;;;;;;4939107;29;20450;-75
2022/03/14 13:44:04;;;;;;;3.40;1.20;;;17.50;99.90;;;;;;4938394;29;20458;-75
2022/03/14 13:46:33;;;;;;;3.00;1.43;;;17.60;99.90;;;;;;4937224;29;20966;-75
2022/03/14 13:49:03;;;;;;;4.80;1.00;;;17.60;99.90;;;;;;4936917;29;20461;-75
2022/03/14 13:51:34;;;;;;;5.93;1.70;;;17.80;99.90;;;;;;4937317;29;20828;-75
2022/03/14 13:54:11;;;;;;;4.50;1.33;;;18.10;99.90;;;;;;4955305;28;20453;-75
2022/03/14 13:56:41;;;;;;;5.93;1.47;;;18.30;99.90;;;;;;4960620;29;20457;-75
2022/03/14 13:59:09;;;;;;;6.10;1.43;;;18.20;99.90;;;;;;4962780;28;20453;-74
2022/03/14 14:01:46;;;;;;;2.27;1.47;;;18.10;99.90;;;;;;4961883;28;20453;-75
2022/03/14 14:04:16;;;;;;;3.53;1.33;;;18.20;99.90;;;;;;4951136;28;20553;-74
2022/03/14 14:06:48;;;;;;;4.80;1.43;;;18.40;99.90;;;;;;4939609;29;20541;-75
2022/03/14 14:09:21;;;;;;;5.03;1.77;;;18.60;99.90;;;;;;4941092;29;20514;-73
2022/03/14 14:12:03;;;;;;;3.70;1.63;;;18.60;99.90;;;;;;4942044;29;20443;-75
2022/03/14 14:14:31;;;;;;;2.43;1.10;;;18.70;99.90;;;;;;4940856;29;20632;-74
2022/03/14 14:17:18;;;;;;;2.50;1.53;;;18.70;99.90;;;;;;4940127;29;20495;-74
2022/03/14 14:20:11;;;;;;;2.57;1.30;;;18.70;99.90;;;;;;4939912;29;20447;-75
2022/03/14 14:22:39;;;;;;;4.70;1.33;;;18.80;99.90;;;;;;4940226;29;20489;-74
2022/03/14 14:25:25;;;;;;;2.10;1.37;;;18.70;99.90;;;;;;4939279;29;20593;-74
2022/03/14 14:27:54;;;;;;;4.03;1.57;;;18.50;99.90;;;;;;4936152;29;20469;-75
2022/03/14 14:30:31;;;;;;;3.10;1.40;;;18.50;99.90;;;;;;4936397;29;20462;-73
2022/03/14 14:32:59;;;;;;;3.87;1.40;;;18.50;99.90;;;;;;4935973;29;20509;-72
2022/03/14 14:35:26;;;;;;;5.10;1.63;;;18.40;99.90;;;;;;4936075;29;20478;-73
2022/03/14 14:37:53;;;;;;;5.30;1.10;;;18.40;99.90;;;;;;4935608;29;20455;-73
2022/03/14 14:40:21;;;;;;;7.83;1.37;;;18.50;99.90;;;;;;4936004;29;20458;-73
2022/03/14 14:42:48;;;;;;;2.13;1.30;;;18.60;99.80;;;;;;4935751;29;20500;-73
2022/03/14 14:45:16;;;;;;;3.50;1.20;;;18.70;99.90;;;;;;4935685;29;20590;-73
2022/03/14 14:47:43;;;;;;;3.83;1.40;;;18.70;99.90;;;;;;4935618;29;20462;-73
2022/03/14 14:50:10;;;;;;;3.67;1.50;;;18.70;99.90;;;;;;4935585;29;20798;-73
2022/03/14 14:52:37;;;;;;;3.80;1.47;;;18.60;99.90;;;;;;4935717;29;20458;-73
2022/03/14 14:55:05;;;;;;;2.17;1.30;;;18.40;99.90;;;;;;4935720;29;20470;-73
2022/03/14 14:57:34;;;;;;;2.80;1.13;;;18.40;99.90;;;;;;4935754;29;20454;-73
2022/03/14 15:00:03;;;;;;;3.03;1.20;;;18.30;99.90;;;;;;4936365;29;20878;-73
2022/03/14 15:02:30;;;;;;;2.50;1.10;;;18.40;99.90;;;;;;4939911;29;20971;-73
2022/03/14 15:04:56;;;;;;;2.03;1.00;;;18.50;99.90;;;;;;4939569;29;20502;-73
2022/03/14 15:07:23;;;;;;;2.50;1.10;;;18.50;99.90;;;;;;4939568;29;20464;-73
2022/03/14 15:09:50;;;;;;;2.97;1.27;;;18.60;99.90;;;;;;4940424;29;20457;-73
2022/03/14 15:12:17;;;;;;;3.33;1.20;;;18.60;99.10;;;;;;4939351;29;20450;-73
2022/03/14 15:14:45;;;;;;;3.67;1.10;;;18.70;99.90;;;;;;4940089;29;20951;-73
2022/03/14 15:17:12;;;;;;;3.00;1.20;;;18.80;99.90;;;;;;4940349;29;20455;-73
2022/03/14 15:19:39;;;;;;;2.97;1.07;;;18.90;99.90;;;;;;4939817;29;20887;-73
2022/03/14 15:22:06;;;;;;;4.77;1.90;;;18.80;99.60;;;;;;4939129;29;20464;-73
2022/03/14 15:24:33;;;;;;;3.70;1.37;;;18.90;99.90;;;;;;4939537;29;20486;-73
2022/03/14 15:27:00;;;;;;;2.60;1.30;;;19.00;98.10;;;;;;4938769;29;20857;-73
2022/03/14 15:29:29;;;;;;;6.37;1.50;;;18.90;98.00;;;;;;4939435;29;20465;-73
2022/03/14 15:31:57;;;;;;;4.03;1.50;;;18.90;97.90;;;;;;4937503;29;20926;-73
2022/03/14 15:34:24;;;;;;;3.03;1.23;;;18.60;97.90;;;;;;4938028;29;20506;-73
2022/03/14 15:36:51;;;;;;;3.23;1.50;;;18.70;98.90;;;;;;4938781;29;20495;-73
2022/03/14 15:39:19;;;;;;;4.10;1.40;;;18.90;97.70;;;;;;4937129;29;20958;-74
2022/03/14 15:41:46;;;;;;;1.80;1.10;;;19.10;98.60;;;;;;4936672;29;20482;-73
2022/03/14 15:44:13;;;;;;;5.10;1.60;;;19.20;97.60;;;;;;4937751;29;20557;-73
2022/03/14 15:46:40;;;;;;;4.00;1.37;;;19.30;97.80;;;;;;4938552;29;20526;-73
2022/03/14 15:49:08;;;;;;;4.33;1.40;;;19.30;97.50;;;;;;4938750;29;20526;-74
2022/03/14 15:51:37;;;;;;;2.80;1.40;;;19.20;96.40;;;;;;4941295;29;20494;-72
2022/03/14 15:54:05;;;;;;;3.53;1.50;;;19.10;97.60;;;;;;4940290;29;20474;-72
2022/03/14 15:56:32;;;;;;;4.20;1.23;;;19.30;97.30;;;;;;4941804;29;20450;-72
2022/03/14 15:58:59;;;;;;;2.00;1.20;;;19.40;96.30;;;;;;4937707;29;20540;-72
2022/03/14 16:01:26;;;;;;;1.80;1.27;;;19.50;96.90;;;;;;4936979;29;20552;-72
2022/03/14 16:03:53;;;;;;;4.47;1.57;;;19.50;96.80;;;;;;4935454;29;20466;-72
2022/03/14 16:06:22;;;;;;;2.30;1.10;;;19.60;96.20;;;;;;4941685;29;21025;-72
2022/03/14 16:08:50;;;;;;;3.77;1.47;;;19.70;95.80;;;;;;4948841;29;20447;-72
2022/03/14 16:11:17;;;;;;;6.90;1.93;;;19.70;96.60;;;;;;4949809;29;20891;-72
2022/03/14 16:13:44;;;;;;;2.93;1.50;;;19.70;96.40;;;;;;4941224;29;20451;-71
2022/03/14 16:16:12;;;;;;;4.10;1.23;;;19.70;96.50;;;;;;4942243;29;20517;-72
2022/03/14 16:18:39;;;;;;;3.30;1.60;;;19.70;95.90;;;;;;4939535;29;20446;-73
2022/03/14 16:21:06;;;;;;;3.50;1.57;;;19.50;96.20;;;;;;4940739;29;20951;-73
2022/03/14 16:23:35;;;;;;;2.30;1.33;;;19.40;96.30;;;;;;4942054;29;20482;-74
2022/03/14 16:26:02;;;;;;;3.90;1.33;;;19.30;96.10;;;;;;4941412;29;20494;-74
2022/03/14 16:28:29;;;;;;;3.17;1.40;;;19.30;96.00;;;;;;4944969;29;20839;-74
2022/03/14 16:30:57;;;;;;;6.20;2.20;;;19.20;95.80;;;;;;4945729;29;20458;-74
2022/03/14 16:33:24;;;;;;;2.73;1.40;;;19.10;95.60;;;;;;4946487;29;20489;-74
2022/03/14 16:35:51;;;;;;;3.00;1.47;;;19.10;95.90;;;;;;4945756;29;20546;-73
2022/03/14 16:38:18;;;;;;;3.83;1.60;;;19.00;95.80;;;;;;4944872;29;20514;-74
2022/03/14 16:40:46;;;;;;;3.60;1.40;;;18.70;95.90;;;;;;4945154;29;20481;-73
2022/03/14 16:43:14;;;;;;;3.17;1.50;;;18.50;96.40;;;;;;4946195;29;20458;-73
2022/03/14 16:45:41;;;;;;;5.53;1.40;;;18.20;96.40;;;;;;4945690;29;20509;-74
2022/03/14 16:48:08;;;;;;;2.47;1.20;;;17.90;97.00;;;;;;4944827;29;20458;-73
2022/03/14 16:50:36;;;;;;;7.40;2.83;;;17.70;97.00;;;;;;4944533;29;20465;-73
2022/03/14 16:53:03;;;;;;;5.70;1.53;;;17.40;97.30;;;;;;4943499;29;20525;-73
2022/03/14 16:55:30;;;;;;;7.80;1.93;;;17.20;97.10;;;;;;4944572;29;20484;-73
2022/03/14 16:57:58;;;;;;;3.90;1.30;;;17.10;97.50;;;;;;4942797;29;20466;-74
2022/03/14 17:00:25;;;;;;;3.70;1.53;;;16.90;97.50;;;;;;4944010;29;20540;-73
2022/03/14 17:02:53;;;;;;;5.70;1.43;;;16.70;97.60;;;;;;4941868;29;20454;-73
2022/03/14 17:05:20;;;;;;;6.37;1.40;;;16.50;97.80;;;;;;4941081;29;20574;-73
2022/03/14 17:07:47;;;;;;;3.27;1.33;;;16.40;97.90;;;;;;4938032;29;20994;-69
2022/03/14 17:12:55;;;;;;;6.60;1.90;;;16.10;98.20;;;;;;4939255;28;20446;-74
2022/03/14 17:15:24;;;;;;;4.43;2.10;;;15.90;98.30;;;;;;4938044;29;20486;-74
2022/03/14 17:17:52;;;;;;;3.90;1.60;;;15.90;98.60;;;;;;4992551;23;20507;-76
2022/03/14 17:20:19;;;;;;;3.17;2.00;;;15.70;98.90;;;;;;4994971;28;20471;-76
2022/03/14 17:22:46;;;;;;;3.10;1.90;;;15.50;98.90;;;;;;4995306;28;20447;-76
2022/03/14 17:25:13;;;;;;;3.83;1.63;;;15.50;99.10;;;;;;4995109;28;20939;-76
2022/03/14 17:27:41;;;;;;;2.47;1.57;;;15.30;99.00;;;;;;4994655;28;20475;-76
2022/03/14 17:30:09;;;;;;;4.43;1.60;;;15.20;99.20;;;;;;4994758;28;20951;-76
2022/03/14 17:32:38;;;;;;;6.33;3.33;;;15.10;99.50;;;;;;4994999;28;20447;-75
2022/03/14 17:35:06;;;;;;;5.30;3.13;;;15.00;99.60;;;;;;4994813;28;20987;-74
2022/03/14 17:37:33;;;;;;;4.13;2.10;;;14.90;99.80;;;;;;4996554;28;20474;-75
2022/03/14 17:40:00;;;;;;;3.10;2.00;;;14.80;99.80;;;;;;4999268;28;20455;-75
2022/03/14 17:42:27;;;;;;;3.93;1.80;;;14.70;99.90;;;;;;4999411;28;20543;-74
2022/03/14 17:44:54;;;;;;;3.47;1.83;;;14.60;99.90;;;;;;4998168;28;20455;-73
2022/03/14 17:47:21;;;;;;;4.67;1.80;;;14.50;99.90;;;;;;4993899;28;20499;-75
2022/03/14 17:49:49;;;;;;;2.00;1.57;;;14.30;99.90;;;;;;4994581;28;20452;-75
2022/03/14 17:52:17;;;;;;;4.27;1.80;;;14.20;99.90;;;;;;4994856;28;20821;-75
2022/03/14 17:54:44;;;;;;;6.30;1.67;;;14.10;99.90;;;;;;4994758;28;20452;-75
2022/03/14 17:57:11;;;;;;;3.73;1.80;;;14.10;99.90;;;;;;4993955;28;20567;-77
2022/03/14 17:59:38;;;;;;;2.77;1.40;;;13.90;99.90;;;;;;4994646;28;20529;-75
2022/03/14 18:02:05;;;;;;;7.30;2.07;;;13.90;99.90;;;;;;4994893;28;20928;-74
2022/03/14 18:04:32;;;;;;;4.47;1.63;;;13.80;99.90;;;;;;4995217;28;20452;-75